Time;durP1;ratioP1;P1;durP2;ratioP2;P2;SDS_P1;SDS_P2;PMS_P1;PMS_P2;Temp;Humidity;BMP_temperature;BMP_pressure;BME280_temperature;BME280_humidity;BME280_pressure;Samples;Min_cycle;Max_cycle;Signal;HPM_P1;HPM_P2
2021/06/19 00:02:20;;;;;;;0.17;0.10;;;;;;;15.12;70.55;100352.47;6195876;23;20009;-73
2021/06/19 00:04:45;;;;;;;0.20;0.20;;;;;;;15.14;70.12;100358.47;6163515;23;20013;-72
2021/06/19 00:07:11;;;;;;;0.10;0.10;;;;;;;15.12;70.47;100350.50;6192709;23;20009;-74
2021/06/19 00:09:37;;;;;;;0.20;0.10;;;;;;;15.16;70.61;100356.25;6169617;23;20012;-74
2021/06/19 00:12:04;;;;;;;0.20;0.20;;;;;;;15.16;70.60;100359.00;6192338;23;20035;-76
2021/06/19 00:14:29;;;;;;;0.13;0.10;;;;;;;15.14;70.37;100359.31;6195375;23;20507;-75
2021/06/19 00:16:56;;;;;;;0.10;0.10;;;;;;;15.16;70.03;100362.56;6141062;23;20009;-75
2021/06/19 00:19:22;;;;;;;0.05;0.05;;;;;;;15.14;70.39;100352.97;6197649;23;20005;-75
2021/06/19 00:21:48;;;;;;;0.08;0.08;;;;;;;15.16;69.95;100356.25;6196346;23;20005;-76
2021/06/19 00:24:23;;;;;;;0.10;0.10;;;;;;;15.13;70.20;100352.16;6172037;23;20013;-76
2021/06/19 00:26:49;;;;;;;0.45;0.13;;;;;;;15.11;70.09;100356.31;6191557;23;20001;-74
2021/06/19 00:29:16;;;;;;;0.20;0.20;;;;;;;15.10;70.32;100358.25;6171280;23;20005;-74
2021/06/19 00:31:45;;;;;;;0.10;0.10;;;;;;;15.10;70.20;100351.91;6192657;23;20013;-73
2021/06/19 00:34:12;;;;;;;0.10;0.10;;;;;;;15.09;69.75;100351.09;6165462;23;20001;-75
2021/06/19 00:36:37;;;;;;;0.10;0.10;;;;;;;15.07;70.28;100347.84;6196595;23;19997;-74
2021/06/19 00:39:04;;;;;;;0.10;0.10;;;;;;;15.10;69.78;100335.41;6199374;23;20575;-73
2021/06/19 00:41:30;;;;;;;0.00;0.00;;;;;;;15.10;69.94;100336.22;6172739;23;20040;-74
2021/06/19 00:43:56;;;;;;;0.10;0.10;;;;;;;15.11;70.19;100337.88;6146020;23;20028;-76
2021/06/19 00:46:21;;;;;;;0.10;0.10;;;;;;;15.07;69.91;100331.31;6195110;23;20017;-75
2021/06/19 00:48:47;;;;;;;0.28;0.20;;;;;;;15.02;69.86;100331.38;6198891;23;20013;-75
2021/06/19 00:51:12;;;;;;;0.22;0.10;;;;;;;15.08;69.61;100321.94;6196801;23;20039;-75
2021/06/19 00:53:38;;;;;;;0.28;0.10;;;;;;;15.14;69.39;100340.03;6198796;23;20001;-75
2021/06/19 00:56:04;;;;;;;0.20;0.20;;;;;;;15.10;69.70;100341.75;6198017;23;20021;-76
2021/06/19 00:58:32;;;;;;;0.00;0.00;;;;;;;15.12;69.83;100333.19;6197622;23;20407;-75
2021/06/19 01:00:57;;;;;;;0.05;0.05;;;;;;;15.19;69.63;100334.44;6196687;23;20005;-74
2021/06/19 01:03:23;;;;;;;0.13;0.13;;;;;;;15.21;69.47;100330.56;6192807;23;20020;-76
2021/06/19 01:05:50;;;;;;;0.20;0.10;;;;;;;15.19;69.63;100342.69;6194585;23;20008;-75
2021/06/19 01:08:16;;;;;;;0.20;0.20;;;;;;;15.13;69.84;100341.13;6194792;23;20016;-76
2021/06/19 01:10:41;;;;;;;0.10;0.10;;;;;;;15.09;69.58;100342.84;6197566;23;20009;-74
2021/06/19 01:13:07;;;;;;;0.10;0.10;;;;;;;15.05;70.03;100338.25;6194730;23;20028;-76
2021/06/19 01:15:32;;;;;;;0.25;0.10;;;;;;;15.05;69.96;100343.75;6167556;23;20013;-76
2021/06/19 01:17:57;;;;;;;0.10;0.10;;;;;;;15.03;70.03;100352.31;6194822;23;20016;-76
2021/06/19 01:20:25;;;;;;;0.10;0.10;;;;;;;15.04;69.54;100353.13;6197082;23;20016;-75
2021/06/19 01:22:54;;;;;;;0.03;0.00;;;;;;;15.03;69.90;100352.31;6193946;23;20414;-76
2021/06/19 01:25:26;;;;;;;0.10;0.10;;;;;;;15.05;69.33;100358.31;6200435;23;20031;-75
2021/06/19 01:27:53;;;;;;;0.20;0.20;;;;;;;15.02;69.73;100350.66;6199198;23;20001;-75
2021/06/19 01:30:25;;;;;;;0.20;0.20;;;;;;;14.98;70.04;100349.63;6173376;23;20009;-76
2021/06/19 01:32:51;;;;;;;0.10;0.10;;;;;;;14.97;69.36;100348.81;6172716;23;20415;-75
2021/06/19 01:35:17;;;;;;;0.20;0.20;;;;;;;14.95;70.02;100352.97;6199256;23;20005;-76
2021/06/19 01:37:54;;;;;;;0.10;0.10;;;;;;;14.93;70.30;100357.97;6198954;23;20064;-74
2021/06/19 01:40:28;;;;;;;0.40;0.40;;;;;;;14.89;70.16;100362.41;6200193;23;20060;-74
2021/06/19 01:42:55;;;;;;;0.38;0.28;;;;;;;14.88;70.20;100382.81;6196253;23;20001;-75
2021/06/19 01:45:39;;;;;;;0.20;0.20;;;;;;;14.89;69.76;100395.47;6192024;23;20012;-72
2021/06/19 01:48:07;;;;;;;0.40;0.40;;;;;;;14.86;69.93;100390.53;6198414;23;20450;-76
2021/06/19 01:50:34;;;;;;;0.30;0.20;;;;;;;14.82;69.96;100393.91;6191680;23;20073;-75
2021/06/19 01:53:01;;;;;;;0.20;0.20;;;;;;;14.80;69.75;100409.06;6197529;23;20064;-74
2021/06/19 01:55:27;;;;;;;0.20;0.20;;;;;;;14.79;69.92;100412.91;6193305;23;20009;-74
2021/06/19 01:57:55;;;;;;;0.20;0.20;;;;;;;14.77;70.49;100407.72;6194464;23;20044;-75
2021/06/19 02:00:23;;;;;;;0.20;0.20;;;;;;;14.76;70.04;100402.50;6193624;23;20013;-75
2021/06/19 02:02:48;;;;;;;0.40;0.20;;;;;;;14.77;70.21;100410.47;6195235;23;20033;-74
2021/06/19 02:05:15;;;;;;;0.28;0.10;;;;;;;14.76;70.07;100402.50;6195966;23;20021;-75
2021/06/19 02:07:53;;;;;;;0.10;0.10;;;;;;;14.78;69.99;100401.09;6195623;23;20008;-76
2021/06/19 02:10:22;;;;;;;0.38;0.35;;;;;;;14.74;70.45;100394.53;6194974;23;20000;-76
2021/06/19 02:12:47;;;;;;;0.10;0.10;;;;;;;14.72;70.44;100394.03;6196721;23;20009;-75
2021/06/19 02:15:13;;;;;;;0.32;0.20;;;;;;;14.70;70.36;100385.22;6168604;23;20638;-75
2021/06/19 02:17:39;;;;;;;0.28;0.10;;;;;;;14.72;70.80;100372.00;6195493;23;20001;-76
2021/06/19 02:20:06;;;;;;;0.10;0.10;;;;;;;14.77;70.70;100363.66;6192684;23;20249;-77
2021/06/19 02:22:34;;;;;;;0.32;0.20;;;;;;;14.77;70.43;100343.59;6194304;23;20079;-76
2021/06/19 02:24:59;;;;;;;0.30;0.30;;;;;;;14.82;70.58;100346.25;6195837;23;20005;-76
2021/06/19 02:27:24;;;;;;;0.30;0.30;;;;;;;14.82;70.60;100335.25;6193655;23;20156;-75
2021/06/19 02:29:50;;;;;;;0.25;0.25;;;;;;;14.83;70.18;100337.72;6168481;23;20020;-76
2021/06/19 02:32:16;;;;;;;0.40;0.40;;;;;;;14.79;70.41;100325.66;6193327;23;20017;-77
2021/06/19 02:34:44;;;;;;;0.20;0.20;;;;;;;14.82;70.27;100327.81;6196395;23;20301;-76
2021/06/19 02:37:10;;;;;;;0.30;0.22;;;;;;;14.81;70.91;100315.16;6171273;23;20162;-76
2021/06/19 02:39:35;;;;;;;0.30;0.30;;;;;;;14.78;70.37;100321.28;6189524;23;20475;-75
2021/06/19 02:42:00;;;;;;;0.30;0.30;;;;;;;14.73;70.91;100315.81;6196141;23;20040;-76
2021/06/19 02:44:26;;;;;;;0.30;0.20;;;;;;;14.72;70.58;100322.47;6196807;23;20016;-75
2021/06/19 02:46:51;;;;;;;0.30;0.30;;;;;;;14.71;70.89;100325.50;6195247;23;20039;-77
2021/06/19 02:49:17;;;;;;;0.32;0.32;;;;;;;14.69;70.51;100325.81;6190423;23;20028;-77
2021/06/19 02:51:42;;;;;;;0.17;0.17;;;;;;;14.66;71.03;100337.41;6195022;23;20059;-76
2021/06/19 02:54:08;;;;;;;0.20;0.20;;;;;;;14.62;70.65;100337.19;6195934;23;20110;-77
2021/06/19 02:56:33;;;;;;;0.30;0.30;;;;;;;14.59;70.65;100336.94;6195659;23;20306;-75
2021/06/19 02:58:59;;;;;;;0.40;0.40;;;;;;;14.61;70.47;100345.69;6192752;23;20005;-75
2021/06/19 03:01:25;;;;;;;0.20;0.20;;;;;;;14.56;70.61;100343.00;6196243;23;20096;-75
2021/06/19 03:03:50;;;;;;;0.20;0.20;;;;;;;14.54;71.32;100346.03;6193136;23;20012;-75
2021/06/19 03:06:18;;;;;;;0.05;0.05;;;;;;;14.53;71.54;100355.44;6168996;23;20013;-75
2021/06/19 03:08:44;;;;;;;0.10;0.10;;;;;;;14.51;70.99;100354.06;6166657;23;20005;-76
2021/06/19 03:11:09;;;;;;;0.20;0.20;;;;;;;14.52;71.11;100369.47;6195464;23;20053;-76
2021/06/19 03:13:35;;;;;;;0.30;0.30;;;;;;;14.51;71.13;100376.09;6195769;23;20067;-75
2021/06/19 03:16:01;;;;;;;0.17;0.10;;;;;;;14.49;70.88;100388.19;6186864;23;20309;-74
2021/06/19 03:18:26;;;;;;;0.90;0.00;;;;;;;14.46;71.49;100376.97;6197339;23;20096;-76
2021/06/19 03:20:52;;;;;;;0.10;0.10;;;;;;;14.46;71.62;100372.28;6194099;23;20056;-74
2021/06/19 03:23:17;;;;;;;0.08;0.08;;;;;;;14.47;71.04;100371.19;6195588;23;20025;-75
2021/06/19 03:25:43;;;;;;;0.20;0.10;;;;;;;14.48;71.16;100374.75;6196475;23;20016;-76
2021/06/19 03:28:11;;;;;;;0.10;0.10;;;;;;;14.47;71.72;100373.94;6170002;23;20036;-74
2021/06/19 03:30:39;;;;;;;0.10;0.10;;;;;;;14.47;71.64;100379.44;6192928;23;20076;-76
2021/06/19 03:33:05;;;;;;;0.10;0.10;;;;;;;14.48;71.01;100375.56;6168095;23;20005;-73
2021/06/19 03:35:32;;;;;;;0.00;0.00;;;;;;;14.48;71.67;100385.75;6145332;23;20012;-75
2021/06/19 03:37:58;;;;;;;0.00;0.00;;;;;;;14.46;71.77;100387.97;6195190;23;20073;-74
2021/06/19 03:40:26;;;;;;;0.20;0.20;;;;;;;14.43;71.09;100402.31;6193770;23;20012;-74
2021/06/19 03:42:52;;;;;;;0.05;0.05;;;;;;;14.42;71.60;100415.25;6197736;23;20008;-74
2021/06/19 03:45:19;;;;;;;0.35;0.35;;;;;;;14.35;71.80;100406.50;6193959;23;20108;-75
2021/06/19 03:47:45;;;;;;;0.10;0.10;;;;;;;14.34;71.52;100406.81;6194413;23;20056;-75
2021/06/19 03:50:13;;;;;;;0.10;0.10;;;;;;;14.36;71.37;100416.41;6193916;23;20005;-75
2021/06/19 03:52:39;;;;;;;0.20;0.20;;;;;;;14.38;71.56;100413.38;6169364;23;20012;-75
2021/06/19 03:55:06;;;;;;;0.28;0.22;;;;;;;14.39;71.60;100404.81;6195223;23;20001;-75
2021/06/19 03:57:32;;;;;;;0.20;0.20;;;;;;;14.41;71.34;100416.38;6192030;23;20111;-76
2021/06/19 03:59:59;;;;;;;0.10;0.10;;;;;;;14.42;71.38;100423.50;6192969;23;20013;-76
2021/06/19 04:02:25;;;;;;;0.20;0.20;;;;;;;14.42;71.91;100431.75;6169631;23;20005;-75
2021/06/19 04:04:51;;;;;;;0.20;0.20;;;;;;;14.42;72.07;100430.94;6169005;23;20408;-75
2021/06/19 04:07:19;;;;;;;0.22;0.22;;;;;;;14.40;71.87;100428.47;6196106;23;20009;-76
2021/06/19 04:09:47;;;;;;;0.28;0.28;;;;;;;14.36;71.60;100427.41;6196193;23;20002;-74
2021/06/19 04:12:13;;;;;;;0.20;0.20;;;;;;;14.37;71.68;100412.56;6170911;23;20015;-75
2021/06/19 04:14:38;;;;;;;0.10;0.10;;;;;;;14.33;71.96;100406.00;6192167;23;20065;-73
2021/06/19 04:17:04;;;;;;;0.28;0.20;;;;;;;14.35;72.38;100405.72;6170645;23;20001;-74
2021/06/19 04:19:29;;;;;;;0.22;0.20;;;;;;;14.36;72.34;100410.09;6197085;23;20016;-74
2021/06/19 04:21:55;;;;;;;0.50;0.50;;;;;;;14.34;71.98;100402.16;6195036;23;20016;-74
2021/06/19 04:24:20;;;;;;;5.78;0.17;;;;;;;14.36;71.89;100399.91;6147447;23;20012;-74
2021/06/19 04:26:49;;;;;;;0.20;0.20;;;;;;;14.39;72.05;100402.06;6171261;23;20420;-74
2021/06/19 04:29:14;;;;;;;0.20;0.20;;;;;;;14.43;71.94;100410.59;6196777;23;20049;-73
2021/06/19 04:31:40;;;;;;;0.20;0.20;;;;;;;14.45;71.97;100409.16;6195863;23;20005;-74
2021/06/19 04:34:05;;;;;;;0.17;0.15;;;;;;;14.49;72.11;100409.41;6195720;23;20244;-74
2021/06/19 04:36:30;;;;;;;0.40;0.40;;;;;;;14.48;72.04;100408.59;6166243;23;20025;-74
2021/06/19 04:38:56;;;;;;;0.10;0.10;;;;;;;14.54;71.76;100414.03;6196445;23;20099;-73
2021/06/19 04:44:08;;;;;;;0.20;0.20;;;;;;;14.59;71.95;100403.78;6170134;23;20013;-72
2021/06/19 04:46:33;;;;;;;0.30;0.30;;;;;;;14.67;71.77;100396.81;6170053;23;20050;-72
2021/06/19 04:48:59;;;;;;;0.20;0.20;;;;;;;14.72;71.43;100394.03;6193088;23;20317;-73
2021/06/19 04:51:24;;;;;;;0.22;0.22;;;;;;;14.73;71.84;100392.88;6191029;23;20005;-73
2021/06/19 04:53:52;;;;;;;0.32;0.32;;;;;;;14.79;71.66;100411.00;6193253;23;20012;-73
2021/06/19 04:56:17;;;;;;;0.30;0.30;;;;;;;14.79;71.84;100402.75;6195055;23;20069;-74
2021/06/19 04:58:44;;;;;;;0.17;0.17;;;;;;;14.82;71.73;100401.31;6198225;23;20063;-75
2021/06/19 05:01:09;;;;;;;0.20;0.20;;;;;;;14.81;71.71;100402.44;6198909;23;20009;-75
2021/06/19 05:03:35;;;;;;;0.20;0.20;;;;;;;14.84;71.87;100401.84;6196017;23;20020;-75
2021/06/19 05:06:01;;;;;;;0.20;0.20;;;;;;;14.88;70.97;100413.09;6198874;23;20009;-75
2021/06/19 05:08:26;;;;;;;0.30;0.30;;;;;;;14.90;71.25;100406.16;6197472;23;20012;-74
2021/06/19 05:10:52;;;;;;;0.45;0.45;;;;;;;14.95;71.16;100410.78;6199225;23;20005;-74
2021/06/19 05:13:18;;;;;;;0.20;0.20;;;;;;;15.00;71.05;100403.28;6196033;23;20412;-74
2021/06/19 05:15:44;;;;;;;0.40;0.40;;;;;;;15.04;70.95;100403.53;6194202;23;20013;-74
2021/06/19 05:18:09;;;;;;;0.28;0.28;;;;;;;15.09;70.82;100394.38;6193724;23;20019;-74
2021/06/19 05:20:34;;;;;;;0.40;0.40;;;;;;;15.09;70.90;100378.66;6168165;23;20492;-73
2021/06/19 05:23:01;;;;;;;0.68;0.52;;;;;;;15.13;70.49;100368.69;6193647;23;20013;-72
2021/06/19 05:25:29;;;;;;;0.60;0.60;;;;;;;15.14;70.97;100375.84;6194012;23;20012;-75
2021/06/19 05:27:54;;;;;;;0.50;0.50;;;;;;;15.19;70.77;100378.50;6166555;23;20005;-73
2021/06/19 05:30:20;;;;;;;0.35;0.35;;;;;;;15.26;70.61;100374.53;6170514;23;20089;-76
2021/06/19 05:32:45;;;;;;;0.57;0.57;;;;;;;15.28;70.29;100372.31;6171654;23;20649;-76
2021/06/19 05:35:11;;;;;;;1.05;0.60;;;;;;;15.31;70.22;100380.81;6165017;23;20016;-76
2021/06/19 05:37:38;;;;;;;0.50;0.50;;;;;;;15.33;70.43;100389.59;6197254;23;20016;-75
2021/06/19 05:40:05;;;;;;;0.40;0.40;;;;;;;15.35;70.20;100397.56;6170444;23;20001;-73
2021/06/19 05:42:30;;;;;;;0.30;0.30;;;;;;;15.42;70.44;100411.78;6195356;23;20004;-75
2021/06/19 05:44:56;;;;;;;0.20;0.20;;;;;;;15.47;70.25;100400.66;6164173;23;20023;-72
2021/06/19 05:47:21;;;;;;;0.25;0.25;;;;;;;15.49;70.41;100408.63;6191260;23;20008;-73
2021/06/19 05:49:47;;;;;;;0.22;0.22;;;;;;;15.49;70.48;100409.47;6189800;23;20020;-74
2021/06/19 05:52:13;;;;;;;0.20;0.20;;;;;;;15.50;70.46;100405.56;6191683;23;20032;-74
2021/06/19 05:54:38;;;;;;;0.20;0.20;;;;;;;15.54;70.09;100406.63;6193263;23;20027;-74
2021/06/19 05:57:05;;;;;;;1.45;0.30;;;;;;;15.57;70.42;100405.22;6161071;23;20109;-74
2021/06/19 05:59:34;;;;;;;0.40;0.32;;;;;;;15.58;69.85;100400.50;6196311;23;20019;-78
2021/06/19 06:02:03;;;;;;;0.20;0.20;;;;;;;15.61;69.87;100405.41;6194954;23;20015;-75
2021/06/19 06:04:29;;;;;;;0.38;0.38;;;;;;;15.62;70.24;100407.88;6196841;23;20013;-75
2021/06/19 06:06:54;;;;;;;0.25;0.17;;;;;;;15.66;70.03;100405.34;6193585;23;20005;-74
2021/06/19 06:09:19;;;;;;;0.40;0.40;;;;;;;15.68;69.57;100400.34;6190164;23;20013;-75
2021/06/19 06:11:45;;;;;;;0.43;0.25;;;;;;;15.76;69.46;100410.69;6167207;23;20009;-75
2021/06/19 06:14:11;;;;;;;0.30;0.20;;;;;;;15.82;69.51;100394.91;6165430;23;20088;-75
2021/06/19 06:16:36;;;;;;;0.17;0.10;;;;;;;15.90;69.76;100390.63;6170337;23;20300;-75
2021/06/19 06:19:02;;;;;;;0.65;0.20;;;;;;;15.96;69.54;100395.78;6197985;23;20001;-76
2021/06/19 06:21:28;;;;;;;1.60;0.13;;;;;;;16.05;69.08;100404.16;6195297;23;20025;-73
2021/06/19 06:23:53;;;;;;;0.10;0.10;;;;;;;16.13;69.38;100410.91;6199534;23;20005;-75
2021/06/19 06:26:18;;;;;;;0.10;0.10;;;;;;;16.20;69.19;100416.84;6196961;23;20498;-77
2021/06/19 06:28:44;;;;;;;0.00;0.00;;;;;;;16.26;69.33;100417.59;6196169;23;20009;-78
2021/06/19 06:31:10;;;;;;;0.08;0.00;;;;;;;16.34;68.91;100427.91;6199009;23;20282;-79
2021/06/19 06:33:35;;;;;;;0.75;0.30;;;;;;;16.36;68.41;100426.47;6198371;23;20032;-78
2021/06/19 06:36:00;;;;;;;0.00;0.00;;;;;;;16.41;68.18;100428.31;6122213;23;20104;-75
2021/06/19 06:38:26;;;;;;;0.10;0.10;;;;;;;16.46;68.21;100431.00;6197654;23;20336;-76
2021/06/19 06:40:51;;;;;;;0.13;0.10;;;;;;;16.53;67.79;100417.59;6171582;23;20069;-76
2021/06/19 06:43:17;;;;;;;0.00;0.00;;;;;;;16.64;67.54;100409.13;6197934;23;20001;-79
2021/06/19 06:45:42;;;;;;;1.80;0.00;;;;;;;16.77;67.85;100407.47;6192908;23;20005;-76
2021/06/19 06:48:08;;;;;;;0.00;0.00;;;;;;;16.96;67.26;100393.56;6172199;23;20387;-74
2021/06/19 06:50:33;;;;;;;0.00;0.00;;;;;;;17.15;67.12;100394.25;6168974;23;20016;-75
2021/06/19 06:52:59;;;;;;;0.00;0.00;;;;;;;17.32;66.51;100390.81;6196923;23;20016;-76
2021/06/19 06:55:24;;;;;;;0.05;0.05;;;;;;;17.46;66.36;100393.50;6195068;23;20068;-76
2021/06/19 06:57:50;;;;;;;0.00;0.00;;;;;;;17.53;65.77;100391.13;6190910;23;20021;-73
2021/06/19 07:00:16;;;;;;;0.10;0.10;;;;;;;17.69;64.89;100393.53;6196692;23;20194;-75
2021/06/19 07:02:43;;;;;;;1.30;0.10;;;;;;;17.74;64.65;100394.22;6168593;23;20360;-77
2021/06/19 07:05:09;;;;;;;0.00;0.00;;;;;;;17.73;63.86;100397.31;6197933;23;20005;-77
2021/06/19 07:07:37;;;;;;;0.00;0.00;;;;;;;17.70;63.43;100386.88;6198343;23;20041;-76
2021/06/19 07:10:05;;;;;;;2.35;0.00;;;;;;;17.66;63.40;100389.44;6172510;23;20332;-75
2021/06/19 07:12:31;;;;;;;0.00;0.00;;;;;;;17.65;63.10;100398.84;6197658;23;20056;-73
2021/06/19 07:14:56;;;;;;;0.75;0.10;;;;;;;17.63;63.02;100404.72;6195010;23;20013;-75
2021/06/19 07:17:21;;;;;;;0.05;0.05;;;;;;;17.66;62.79;100410.75;6143711;23;20012;-76
2021/06/19 07:19:47;;;;;;;0.17;0.00;;;;;;;17.71;63.02;100405.09;6195468;23;20013;-76
2021/06/19 07:22:12;;;;;;;0.00;0.00;;;;;;;17.78;63.55;100402.69;6193707;23;20009;-74
2021/06/19 07:24:38;;;;;;;0.30;0.10;;;;;;;17.83;62.62;100399.81;6145444;23;20013;-75
2021/06/19 07:27:04;;;;;;;0.00;0.00;;;;;;;17.88;62.02;100396.91;6192183;23;20009;-75
2021/06/19 07:29:30;;;;;;;0.00;0.00;;;;;;;17.95;61.93;100385.44;6195124;23;20005;-76
2021/06/19 07:31:55;;;;;;;0.00;0.00;;;;;;;18.03;61.43;100378.31;6190653;23;20012;-74
2021/06/19 07:34:21;;;;;;;0.20;0.10;;;;;;;18.08;61.95;100380.94;6191298;23;20016;-74
2021/06/19 07:36:46;;;;;;;8.65;0.13;;;;;;;18.17;61.62;100370.72;6193566;23;20009;-76
2021/06/19 07:39:13;;;;;;;0.10;0.10;;;;;;;18.23;61.19;100365.88;6191600;23;20012;-73
2021/06/19 07:41:39;;;;;;;0.00;0.00;;;;;;;18.31;61.20;100365.91;6195965;23;20020;-75
2021/06/19 07:44:06;;;;;;;0.10;0.10;;;;;;;18.41;61.38;100372.28;6193890;23;20001;-74
2021/06/19 07:46:32;;;;;;;0.10;0.10;;;;;;;18.39;60.35;100355.19;6170471;23;20020;-77
2021/06/19 07:48:58;;;;;;;0.10;0.10;;;;;;;18.30;60.27;100357.94;6194403;23;20009;-77
2021/06/19 07:51:23;;;;;;;0.10;0.00;;;;;;;18.28;59.83;100365.72;6197091;23;20039;-75
2021/06/19 07:53:49;;;;;;;0.08;0.08;;;;;;;18.30;60.11;100369.81;6167909;23;20009;-76
2021/06/19 07:56:14;;;;;;;0.00;0.00;;;;;;;18.29;60.29;100373.69;6192112;23;20009;-77
2021/06/19 07:58:40;;;;;;;0.00;0.00;;;;;;;18.31;60.26;100382.50;6195566;23;20176;-75
2021/06/19 08:01:05;;;;;;;0.00;0.00;;;;;;;18.30;60.29;100386.41;6195939;23;20020;-75
2021/06/19 08:03:33;;;;;;;0.25;0.00;;;;;;;18.34;60.32;100383.84;6144209;23;20065;-74
2021/06/19 08:05:59;;;;;;;0.00;0.00;;;;;;;18.47;60.56;100382.06;6194887;23;20000;-78
2021/06/19 08:08:24;;;;;;;0.00;0.00;;;;;;;18.56;59.98;100382.09;6174842;23;20008;-79
2021/06/19 08:10:53;;;;;;;0.00;0.00;;;;;;;18.58;59.76;100375.09;6198233;23;20072;-80
2021/06/19 08:13:18;;;;;;;0.17;0.00;;;;;;;18.67;59.68;100370.44;6173875;23;20013;-76
2021/06/19 08:15:47;;;;;;;0.00;0.00;;;;;;;18.74;59.31;100367.16;6198026;23;20011;-81
2021/06/19 08:18:13;;;;;;;0.10;0.00;;;;;;;18.82;59.13;100362.78;6194304;23;20001;-80
2021/06/19 08:20:38;;;;;;;0.03;0.00;;;;;;;18.88;58.78;100361.53;6169249;23;20443;-78
2021/06/19 08:23:04;;;;;;;0.08;0.08;;;;;;;18.76;58.91;100350.22;6198200;23;20739;-78
2021/06/19 08:25:30;;;;;;;0.20;0.05;;;;;;;18.69;58.75;100352.66;6198061;23;20001;-76
2021/06/19 08:27:56;;;;;;;0.00;0.00;;;;;;;18.77;58.68;100362.94;6174883;23;20032;-78
2021/06/19 08:30:22;;;;;;;0.00;0.00;;;;;;;18.72;58.09;100352.84;6201873;23;20001;-76
2021/06/19 08:32:48;;;;;;;0.00;0.00;;;;;;;18.72;58.70;100355.59;6171977;23;20012;-77
2021/06/19 08:35:14;;;;;;;0.00;0.00;;;;;;;18.77;58.63;100365.72;6195775;23;20023;-76
2021/06/19 08:37:40;;;;;;;0.08;0.00;;;;;;;18.87;58.24;100364.63;6197196;23;20007;-76
2021/06/19 08:40:10;;;;;;;0.00;0.00;;;;;;;18.95;57.89;100366.56;6171766;23;20024;-77
2021/06/19 08:42:36;;;;;;;0.00;0.00;;;;;;;18.96;58.22;100368.22;6194742;23;20788;-77
2021/06/19 08:45:03;;;;;;;0.10;0.10;;;;;;;18.98;57.47;100366.75;6196401;23;20004;-77
2021/06/19 08:47:35;;;;;;;0.22;0.05;;;;;;;18.92;57.96;100368.03;6199923;23;20440;-77
2021/06/19 08:50:08;;;;;;;0.10;0.10;;;;;;;18.83;57.68;100375.50;6148156;23;20013;-78
2021/06/19 08:52:36;;;;;;;0.00;0.00;;;;;;;18.78;58.10;100373.69;6198257;23;20495;-77
2021/06/19 08:55:08;;;;;;;0.10;0.10;;;;;;;18.77;57.71;100377.59;6166116;23;20005;-79
2021/06/19 08:57:34;;;;;;;0.00;0.00;;;;;;;18.78;57.99;100367.34;6187460;23;20028;-74
2021/06/19 09:00:00;;;;;;;1.52;0.70;;;;;;;18.74;57.93;100366.38;6191989;23;20005;-73
2021/06/19 09:02:26;;;;;;;2.72;2.53;;;;;;;18.71;57.89;100362.28;6195663;23;20008;-76
2021/06/19 09:04:51;;;;;;;1.20;1.10;;;;;;;18.75;58.35;100365.22;6169136;23;20005;-80
2021/06/19 09:07:53;;;;;;;0.45;0.43;;;;;;;18.79;58.00;100368.97;6196111;23;19997;-74
2021/06/19 09:10:32;;;;;;;0.43;0.43;;;;;;;18.90;57.56;100378.63;6168771;23;20015;-75
2021/06/19 09:13:22;;;;;;;0.17;0.17;;;;;;;19.04;57.72;100369.38;6193235;23;20012;-74
2021/06/19 09:15:56;;;;;;;0.10;0.10;;;;;;;19.06;57.19;100378.19;6197640;23;20020;-74
2021/06/19 09:18:27;;;;;;;0.15;0.10;;;;;;;19.15;57.99;100387.31;6196535;23;20008;-75
2021/06/19 09:20:54;;;;;;;0.10;0.08;;;;;;;19.19;57.57;100382.75;6192965;23;20005;-75
2021/06/19 09:23:37;;;;;;;0.00;0.00;;;;;;;19.22;57.24;100373.78;6197123;23;20331;-75
2021/06/19 09:26:19;;;;;;;0.28;0.10;;;;;;;19.27;57.34;100381.91;6171746;23;20472;-75
2021/06/19 09:29:09;;;;;;;0.00;0.00;;;;;;;19.22;57.39;100371.00;6197037;23;20001;-76
2021/06/19 09:31:48;;;;;;;0.00;0.00;;;;;;;19.12;56.54;100371.34;6197017;23;20008;-76
2021/06/19 09:34:28;;;;;;;0.10;0.00;;;;;;;19.07;57.13;100374.25;6192606;23;20005;-74
2021/06/19 09:37:03;;;;;;;0.00;0.00;;;;;;;18.94;56.59;100371.31;6172090;23;20112;-76
2021/06/19 09:39:30;;;;;;;0.05;0.05;;;;;;;18.82;56.46;100371.09;6198611;23;20412;-75
2021/06/19 09:42:04;;;;;;;0.00;0.00;;;;;;;18.72;56.47;100375.00;6169955;23;20009;-75
2021/06/19 09:44:46;;;;;;;0.05;0.00;;;;;;;18.64;57.01;100368.28;6169562;23;19997;-74
2021/06/19 09:47:13;;;;;;;0.00;0.00;;;;;;;18.59;57.27;100362.09;6171607;23;20005;-77
2021/06/19 09:49:44;;;;;;;0.00;0.00;;;;;;;18.58;57.41;100358.50;6170881;23;20061;-76
2021/06/19 09:52:11;;;;;;;0.00;0.00;;;;;;;18.62;56.79;100353.94;6196265;23;19997;-75
2021/06/19 09:54:41;;;;;;;0.00;0.00;;;;;;;18.72;56.86;100357.53;6195395;23;20013;-74
2021/06/19 09:57:13;;;;;;;0.00;0.00;;;;;;;18.80;56.57;100353.97;6197486;23;20017;-75
2021/06/19 09:59:39;;;;;;;0.00;0.00;;;;;;;18.82;56.57;100352.53;6148072;23;20104;-76
2021/06/19 10:02:27;;;;;;;0.28;0.10;;;;;;;18.87;55.51;100354.34;6195186;23;20017;-75
2021/06/19 10:04:56;;;;;;;0.10;0.10;;;;;;;18.67;55.23;100344.66;6196557;23;20005;-75
2021/06/19 10:07:23;;;;;;;0.00;0.00;;;;;;;18.56;55.80;100335.03;6198194;23;20065;-76
2021/06/19 10:09:49;;;;;;;0.00;0.00;;;;;;;18.49;56.17;100327.22;6196666;23;20013;-75
2021/06/19 10:12:23;;;;;;;0.03;0.00;;;;;;;18.62;56.76;100331.78;6199530;23;20012;-75
2021/06/19 10:14:54;;;;;;;0.00;0.00;;;;;;;18.70;56.49;100330.16;6197297;23;20007;-75
2021/06/19 10:17:23;;;;;;;0.10;0.10;;;;;;;18.80;56.04;100338.16;6169489;23;20004;-75
2021/06/19 10:19:50;;;;;;;0.00;0.00;;;;;;;18.88;56.06;100342.16;6172466;23;20029;-75
2021/06/19 10:22:16;;;;;;;0.10;0.00;;;;;;;18.95;55.67;100353.56;6199807;23;20005;-76
2021/06/19 10:24:44;;;;;;;0.15;0.03;;;;;;;18.96;55.52;100349.63;6196484;23;20012;-75
2021/06/19 10:27:15;;;;;;;0.10;0.00;;;;;;;19.04;55.86;100348.03;6202276;23;20009;-75
2021/06/19 10:29:41;;;;;;;0.00;0.00;;;;;;;19.23;55.80;100342.16;6177405;23;20068;-74
2021/06/19 10:32:07;;;;;;;0.00;0.00;;;;;;;19.44;55.49;100339.53;6206437;23;20020;-76
2021/06/19 10:34:34;;;;;;;0.00;0.00;;;;;;;19.64;55.76;100338.03;6179277;23;20032;-74
2021/06/19 10:37:03;;;;;;;0.22;0.10;;;;;;;19.78;54.58;100335.06;6201138;23;20001;-74
2021/06/19 10:39:31;;;;;;;0.00;0.00;;;;;;;19.86;54.60;100344.53;6198968;23;20001;-75
2021/06/19 10:41:57;;;;;;;0.00;0.00;;;;;;;19.93;54.31;100352.34;6195541;23;20009;-76
2021/06/19 10:45:00;;;;;;;0.00;0.00;;;;;;;19.97;53.53;100348.56;6147118;23;20009;-77
2021/06/19 10:47:31;;;;;;;0.10;0.00;;;;;;;19.86;53.83;100350.09;6199582;23;20005;-76
2021/06/19 10:49:58;;;;;;;0.10;0.10;;;;;;;19.76;53.64;100345.66;6197379;23;20072;-75
2021/06/19 10:52:28;;;;;;;0.00;0.00;;;;;;;19.68;53.95;100343.72;6198722;23;20061;-75
2021/06/19 10:55:09;;;;;;;0.00;0.00;;;;;;;19.76;54.58;100333.75;6198281;23;20001;-74
2021/06/19 10:57:48;;;;;;;0.00;0.00;;;;;;;19.82;54.33;100332.47;6197354;23;20069;-76
2021/06/19 11:00:26;;;;;;;0.00;0.00;;;;;;;19.82;54.34;100333.28;6172737;23;20016;-75
2021/06/19 11:02:53;;;;;;;0.63;0.00;;;;;;;19.68;53.84;100327.91;6200928;23;19997;-73
2021/06/19 11:05:52;;;;;;;0.00;0.00;;;;;;;19.57;53.73;100321.06;6195302;23;20020;-74
2021/06/19 11:08:19;;;;;;;0.00;0.00;;;;;;;19.46;53.86;100330.88;6149535;23;20019;-74
2021/06/19 11:10:44;;;;;;;0.00;0.00;;;;;;;19.45;54.80;100343.09;6197398;23;20061;-76
2021/06/19 11:13:28;;;;;;;0.00;0.00;;;;;;;19.38;54.22;100349.16;6193237;23;20005;-75
2021/06/19 11:29:39;;;;;;;0.08;0.08;;;;;;;18.83;55.14;100356.09;6194784;23;20016;-77
2021/06/19 11:32:38;;;;;;;0.10;0.10;;;;;;;18.79;54.61;100357.88;6197082;23;20000;-75
2021/06/19 11:35:21;;;;;;;0.20;0.10;;;;;;;18.52;54.34;100353.44;6145754;23;20013;-75
2021/06/19 11:37:54;;;;;;;0.10;0.10;;;;;;;18.30;54.87;100342.13;6195800;23;20005;-77
2021/06/19 11:40:34;;;;;;;0.00;0.00;;;;;;;18.20;55.48;100342.41;6171687;23;20005;-74
2021/06/19 11:43:00;;;;;;;0.10;0.10;;;;;;;18.12;56.40;100341.25;6196107;23;20495;-74
2021/06/19 11:45:26;;;;;;;0.05;0.05;;;;;;;18.12;56.36;100344.03;6193759;23;20072;-75